Terminal Aerodrome Forecast
Issued by NWS Norman, OK

Home | Current Version | Previous Version | Text Only | Print | Product List | Glossary On
Versions: 1 2 3 4 5 6 7 8 9 10 11 12 13 14 15 16 17 18 19 20 21 22 23 24 25 26 27 28
000
FTUS44 KOUN 010520
TAFSPS
TAF
KSPS 010520Z 0106/0206 12006KT P6SM BKN200
     FM011500 12007KT P6SM BKN050 BKN180
     FM011800 18011KT P6SM BKN050 BKN120 OVC200 PROB30 0118/0122 5SM
      -TSRA BKN040CB OVC100=

USA.gov is the U.S. government's official web portal to all federal, state and local government web resources and services.